Time;durP1;ratioP1;P1;durP2;ratioP2;P2;SDS_P1;SDS_P2;PMS_P1;PMS_P2;Temp;Humidity;BMP_temperature;BMP_pressure;BME280_temperature;BME280_humidity;BME280_pressure;Samples;Min_cycle;Max_cycle;Signal;HPM_P1;HPM_P2
2022/05/25 00:00:26;;;;;;;12.75;5.60;;;;;;;25.22;45.18;100441.81;4965787;28;20051;-83
2022/05/25 00:02:54;;;;;;;12.32;5.50;;;;;;;24.42;45.69;100339.97;4950398;28;20549;-82
2022/05/25 00:05:21;;;;;;;8.40;4.95;;;;;;;24.82;46.23;100407.16;4949462;29;20074;-83
2022/05/25 00:07:48;;;;;;;11.73;5.32;;;;;;;24.77;45.98;100404.34;4949759;29;20050;-82
2022/05/25 00:10:17;;;;;;;14.63;6.15;;;;;;;24.81;45.73;100402.81;4949422;29;20051;-82
2022/05/25 00:12:45;;;;;;;11.48;5.60;;;;;;;25.30;45.79;100470.50;4949841;29;20047;-83
2022/05/25 00:15:15;;;;;;;11.68;5.43;;;;;;;23.99;45.79;100289.56;4950598;29;20051;-86
2022/05/25 00:17:42;;;;;;;13.90;5.43;;;;;;;24.14;46.36;100334.38;4950006;29;20055;-82
2022/05/25 00:20:12;;;;;;;13.43;5.80;;;;;;;25.03;46.49;100487.25;4949197;29;20074;-83
2022/05/25 00:22:51;;;;;;;9.27;5.15;;;;;;;25.02;46.30;100480.13;4948896;29;20512;-83
2022/05/25 00:25:23;;;;;;;8.88;5.22;;;;;;;24.91;46.45;100459.25;4948877;29;20051;-84
2022/05/25 00:27:51;;;;;;;8.13;5.22;;;;;;;24.98;46.83;100489.84;4949211;29;20338;-82
2022/05/25 00:30:18;;;;;;;8.40;5.22;;;;;;;24.86;47.17;100497.13;4948347;29;20285;-81
2022/05/25 00:32:47;;;;;;;6.95;5.50;;;;;;;24.74;47.52;100495.22;4950432;28;20051;-83
2022/05/25 00:35:19;;;;;;;7.57;5.65;;;;;;;24.44;47.78;100470.81;4948988;29;20047;-83
2022/05/25 00:37:46;;;;;;;13.63;5.85;;;;;;;24.22;48.07;100437.91;4950379;28;20059;-83
2022/05/25 00:40:17;;;;;;;7.50;4.97;;;;;;;24.55;48.18;100495.53;4949546;29;20485;-83
2022/05/25 00:42:46;;;;;;;10.38;6.05;;;;;;;24.50;48.44;100499.75;4948779;29;20696;-81
2022/05/25 00:45:14;;;;;;;8.85;5.93;;;;;;;24.41;49.06;100482.09;4949055;28;20059;-83
2022/05/25 00:47:47;;;;;;;14.40;6.68;;;;;;;24.46;49.03;100495.84;4948763;29;20146;-82
2022/05/25 00:50:17;;;;;;;12.40;6.70;;;;;;;24.48;49.18;100501.03;4948811;29;20051;-81
2022/05/25 00:52:49;;;;;;;13.68;6.28;;;;;;;24.33;48.19;100460.72;4949692;28;20047;-82
2022/05/25 00:55:27;;;;;;;10.48;5.55;;;;;;;24.35;48.44;100464.06;4948974;29;20047;-83
2022/05/25 00:57:57;;;;;;;11.45;5.90;;;;;;;24.31;48.54;100462.84;4948626;29;20054;-83
2022/05/25 01:00:29;;;;;;;12.15;6.75;;;;;;;24.47;48.78;100500.22;4949718;28;20252;-82
2022/05/25 01:03:10;;;;;;;9.65;5.93;;;;;;;24.37;49.10;100482.78;4964334;28;20055;-82
2022/05/25 01:06:05;;;;;;;8.30;6.78;;;;;;;24.56;48.55;100503.41;4949246;29;20059;-80
2022/05/25 01:08:32;;;;;;;10.35;6.38;;;;;;;24.60;48.35;100503.78;4948550;29;20110;-82
2022/05/25 01:11:14;;;;;;;11.27;5.57;;;;;;;24.60;48.47;100507.31;4948463;29;20212;-82
2022/05/25 01:13:57;;;;;;;15.95;6.65;;;;;;;24.31;48.72;100479.94;4948386;29;20051;-83
2022/05/25 01:20:06;;;;;;;11.30;5.78;;;;;;;24.28;49.85;100504.00;4949026;29;20069;-82
2022/05/25 01:22:54;;;;;;;12.52;6.07;;;;;;;24.27;49.94;100521.31;4949202;29;20055;-82
2022/05/25 01:26:00;;;;;;;11.25;6.30;;;;;;;24.24;50.26;100529.91;4947431;29;20058;-81
2022/05/25 01:28:56;;;;;;;10.43;6.63;;;;;;;24.14;50.10;100513.38;4947518;29;20106;-83
2022/05/25 01:31:32;;;;;;;11.95;6.43;;;;;;;23.43;50.18;100412.66;4947811;29;20074;-83
2022/05/25 01:34:32;;;;;;;12.07;5.97;;;;;;;23.55;49.92;100437.94;4948705;29;20489;-81
2022/05/25 01:37:27;;;;;;;13.30;6.70;;;;;;;24.03;50.18;100521.22;4934350;29;20039;-83
2022/05/25 01:40:02;;;;;;;8.98;5.78;;;;;;;23.85;49.84;100492.22;4949408;28;20051;-82
2022/05/25 01:42:39;;;;;;;7.97;5.32;;;;;;;23.67;49.73;100462.41;4947489;29;20058;-82
2022/05/25 01:45:09;;;;;;;10.05;5.38;;;;;;;24.00;49.51;100515.41;4929842;29;20052;-83
2022/05/25 01:47:40;;;;;;;9.52;5.47;;;;;;;23.45;49.53;100432.22;4944105;28;20414;-83
2022/05/25 01:50:30;;;;;;;7.90;5.72;;;;;;;22.58;49.89;100288.78;4928230;29;20122;-83
2022/05/25 01:53:01;;;;;;;13.85;6.10;;;;;;;23.82;49.79;100481.84;4937932;29;20121;-82
2022/05/25 01:55:43;;;;;;;14.20;6.13;;;;;;;22.55;50.06;100270.25;4947317;29;20059;-83
2022/05/25 01:58:17;;;;;;;10.40;6.15;;;;;;;23.25;49.85;100383.66;4947316;29;20432;-82
2022/05/25 02:00:51;;;;;;;14.75;6.10;;;;;;;23.67;49.76;100456.97;4947484;29;20568;-83
2022/05/25 02:06:22;;;;;;;9.75;5.88;;;;;;;23.95;49.83;100501.69;4951553;28;20059;-83
2022/05/25 02:09:14;;;;;;;9.23;5.82;;;;;;;23.95;50.28;100505.25;4951247;29;20544;-84
2022/05/25 02:11:48;;;;;;;16.83;6.63;;;;;;;23.80;49.87;100474.97;4951044;29;20414;-82
2022/05/25 02:14:38;;;;;;;14.70;6.53;;;;;;;23.96;50.21;100501.50;4951496;29;20055;-83
2022/05/25 02:17:09;;;;;;;8.30;5.68;;;;;;;23.94;50.22;100500.88;4953095;28;20051;-82
2022/05/25 02:19:48;;;;;;;10.43;5.80;;;;;;;23.80;50.58;100489.34;4950834;29;20524;-82
2022/05/25 02:22:30;;;;;;;16.20;6.85;;;;;;;23.84;50.61;100500.59;4951024;29;20157;-81
2022/05/25 02:25:03;;;;;;;12.75;6.28;;;;;;;23.86;50.61;100491.19;4950802;29;20051;-83
2022/05/25 02:27:41;;;;;;;14.20;5.88;;;;;;;23.96;50.00;100497.91;4950697;29;20393;-84
2022/05/25 02:30:19;;;;;;;9.18;5.45;;;;;;;23.49;49.87;100422.56;4950648;29;20061;-82
2022/05/25 02:33:02;;;;;;;11.60;4.80;;;;;;;23.90;50.42;100496.97;4950515;29;20138;-84
2022/05/25 02:35:30;;;;;;;12.70;5.50;;;;;;;23.95;50.13;100497.09;4950915;29;20163;-82
2022/05/25 02:38:02;;;;;;;14.75;5.95;;;;;;;23.72;49.86;100454.41;4950977;29;20082;-82
2022/05/25 02:40:32;;;;;;;15.13;5.85;;;;;;;23.73;49.92;100461.50;4950685;29;20059;-82
2022/05/25 02:42:58;;;;;;;9.82;5.15;;;;;;;22.85;49.83;100320.97;4950629;29;20046;-82
2022/05/25 02:45:26;;;;;;;6.90;4.97;;;;;;;24.08;49.75;100504.28;4950703;28;20081;-82
2022/05/25 02:47:52;;;;;;;9.88;5.00;;;;;;;23.02;49.58;100335.59;4953981;29;20584;-82
2022/05/25 02:50:19;;;;;;;10.60;5.32;;;;;;;23.77;49.85;100467.31;4955355;29;20052;-84
2022/05/25 02:52:47;;;;;;;9.32;5.10;;;;;;;22.46;50.12;100277.84;4951071;29;20047;-84
2022/05/25 02:55:14;;;;;;;9.10;5.47;;;;;;;23.62;50.46;100479.31;4950777;29;20068;-84
2022/05/25 02:57:41;;;;;;;10.25;6.03;;;;;;;23.91;50.16;100506.75;4950749;29;20055;-81
2022/05/25 03:00:09;;;;;;;16.70;6.40;;;;;;;23.72;50.38;100486.94;4951013;29;20069;-80
2022/05/25 03:02:37;;;;;;;9.15;5.65;;;;;;;23.58;50.29;100464.56;4950169;29;20445;-82
2022/05/25 03:05:06;;;;;;;8.55;5.68;;;;;;;22.46;50.60;100302.19;4950693;29;20585;-81
2022/05/25 03:07:33;;;;;;;9.30;5.18;;;;;;;23.79;50.60;100527.56;4950213;29;20508;-81
2022/05/25 03:10:00;;;;;;;6.45;5.13;;;;;;;22.99;51.25;100406.44;4950437;29;20051;-82
2022/05/25 03:12:26;;;;;;;9.40;5.25;;;;;;;23.14;51.26;100436.69;4950609;29;20050;-82
2022/05/25 03:14:58;;;;;;;11.98;5.68;;;;;;;22.31;51.19;100302.53;4950753;29;20050;-82
2022/05/25 03:17:26;;;;;;;13.48;5.82;;;;;;;23.61;51.23;100528.31;4951837;28;20529;-83
2022/05/25 03:19:56;;;;;;;12.57;5.07;;;;;;;23.37;51.08;100498.31;4950486;29;20051;-83
2022/05/25 03:22:24;;;;;;;14.25;6.25;;;;;;;22.92;50.33;100421.88;4950685;29;20433;-83
2022/05/25 03:24:52;;;;;;;7.45;5.53;;;;;;;23.07;50.59;100445.94;4950058;29;20490;-81
2022/05/25 03:27:19;;;;;;;9.13;5.63;;;;;;;23.24;50.89;100496.56;4950319;29;20047;-81
2022/05/25 03:29:46;;;;;;;12.82;6.05;;;;;;;23.54;51.03;100541.91;4951587;29;20286;-81
2022/05/25 03:32:14;;;;;;;10.63;5.60;;;;;;;23.43;50.96;100521.81;4951000;28;20062;-81
2022/05/25 03:34:47;;;;;;;12.35;5.95;;;;;;;23.58;50.92;100550.44;4949665;29;20058;-82
2022/05/25 03:37:14;;;;;;;8.50;5.13;;;;;;;23.12;50.84;100460.44;4951271;28;20070;-82
2022/05/25 03:39:41;;;;;;;9.95;5.05;;;;;;;23.06;51.24;100461.34;4965616;28;20390;-81
2022/05/25 03:42:09;;;;;;;16.70;6.03;;;;;;;23.25;51.04;100484.72;4950032;29;20572;-81
2022/05/25 03:44:36;;;;;;;9.52;5.10;;;;;;;23.64;51.20;100544.13;4949985;29;20047;-83
2022/05/25 03:47:03;;;;;;;15.13;6.78;;;;;;;23.90;50.47;100553.88;4955349;29;20449;-81
2022/05/25 03:49:31;;;;;;;9.38;5.78;;;;;;;23.94;50.38;100559.69;4978514;28;20062;-82
2022/05/25 03:51:57;;;;;;;8.45;5.40;;;;;;;23.88;50.03;100534.31;4959524;29;20085;-82
2022/05/25 03:54:27;;;;;;;10.05;5.65;;;;;;;23.28;50.06;100442.81;4962243;28;20051;-82
2022/05/25 03:56:54;;;;;;;8.77;6.15;;;;;;;23.76;49.72;100514.44;4969572;28;20128;-85
2022/05/25 03:59:24;;;;;;;11.90;5.53;;;;;;;23.87;50.14;100555.16;4956479;29;20051;-84
2022/05/25 04:01:54;;;;;;;8.32;5.55;;;;;;;23.66;50.38;100537.41;4951485;29;20055;-82
2022/05/25 04:04:20;;;;;;;6.95;5.97;;;;;;;23.75;50.48;100556.16;4949828;29;20053;-82
2022/05/25 04:06:47;;;;;;;10.15;5.90;;;;;;;23.48;50.18;100513.03;4949848;29;20158;-82
2022/05/25 04:09:15;;;;;;;12.68;5.45;;;;;;;23.38;50.52;100512.72;4950711;28;20074;-82
2022/05/25 04:11:42;;;;;;;14.60;6.57;;;;;;;22.65;50.72;100410.44;4949495;29;20055;-82
2022/05/25 04:14:09;;;;;;;10.80;5.65;;;;;;;23.09;51.34;100500.69;4965763;28;20050;-80
2022/05/25 04:16:36;;;;;;;11.15;6.10;;;;;;;22.22;51.37;100368.75;4950452;28;20047;-81
2022/05/25 04:19:05;;;;;;;11.35;5.95;;;;;;;23.45;51.70;100575.78;4950882;28;20121;-83
2022/05/25 04:21:31;;;;;;;12.80;6.00;;;;;;;23.32;52.15;100551.50;4964933;28;20057;-82
2022/05/25 04:23:58;;;;;;;12.20;6.32;;;;;;;22.11;52.04;100355.88;4948876;29;20059;-82
2022/05/25 04:26:25;;;;;;;11.80;6.38;;;;;;;22.73;52.13;100446.19;4948568;29;20059;-83
2022/05/25 04:28:51;;;;;;;12.10;6.30;;;;;;;23.48;52.46;100569.09;4964254;28;20055;-82
2022/05/25 04:31:18;;;;;;;10.70;6.45;;;;;;;23.19;52.62;100526.19;4948698;29;20051;-82
2022/05/25 04:33:45;;;;;;;10.55;6.43;;;;;;;23.09;52.92;100514.22;4948922;29;20513;-82
2022/05/25 04:36:12;;;;;;;15.93;7.40;;;;;;;23.41;53.17;100583.50;4948222;29;20059;-82
2022/05/25 04:38:39;;;;;;;7.10;5.88;;;;;;;22.14;53.38;100398.72;4946792;29;20433;-81
2022/05/25 04:41:06;;;;;;;12.35;6.60;;;;;;;22.69;53.56;100476.59;4947346;29;20051;-79
2022/05/25 04:43:32;;;;;;;21.27;6.93;;;;;;;22.45;53.40;100443.06;4948238;28;20414;-83
2022/05/25 04:46:01;;;;;;;16.08;7.78;;;;;;;22.80;53.46;100511.91;4947619;29;20725;-82
2022/05/25 04:48:30;;;;;;;10.85;7.35;;;;;;;23.04;52.97;100556.31;4947248;28;20055;-82
2022/05/25 04:50:57;;;;;;;12.40;6.75;;;;;;;22.82;53.07;100514.41;4947190;29;20051;-82
2022/05/25 04:53:25;;;;;;;15.98;7.05;;;;;;;23.27;53.02;100598.22;4931426;29;20064;-81
2022/05/25 04:58:40;;;;;;;13.18;6.45;;;;;;;23.32;52.71;100614.63;4948170;29;20404;-81
2022/05/25 05:01:09;;;;;;;14.02;6.28;;;;;;;22.96;53.03;100553.00;4946859;29;20059;-81
2022/05/25 05:03:37;;;;;;;14.00;6.63;;;;;;;23.23;52.58;100589.72;4947075;29;20173;-83
2022/05/25 05:06:06;;;;;;;13.98;6.35;;;;;;;23.32;52.75;100622.75;4946245;29;20058;-83
2022/05/25 05:08:34;;;;;;;13.15;7.07;;;;;;;23.34;52.54;100633.38;4946774;29;20051;-82
2022/05/25 05:11:07;;;;;;;11.38;6.88;;;;;;;23.37;52.08;100624.81;4948346;28;20106;-81
2022/05/25 05:13:33;;;;;;;7.60;6.65;;;;;;;23.08;52.38;100581.06;4946679;29;20055;-82
2022/05/25 05:16:05;;;;;;;13.18;7.15;;;;;;;22.50;51.87;100472.97;4946584;29;20139;-82
2022/05/25 05:18:32;;;;;;;11.43;6.15;;;;;;;22.23;51.16;100429.03;4946678;29;20059;-82
2022/05/25 05:21:03;;;;;;;13.52;6.45;;;;;;;23.28;50.85;100599.03;4946626;29;20054;-80
2022/05/25 05:23:30;;;;;;;10.57;5.37;;;;;;;23.52;51.02;100638.88;4946473;29;20051;-82
2022/05/25 05:25:57;;;;;;;9.18;5.40;;;;;;;23.26;50.84;100580.31;4946679;29;20684;-83
2022/05/25 05:28:30;;;;;;;8.75;5.43;;;;;;;23.41;50.67;100602.47;4948029;28;20286;-82
2022/05/25 05:30:58;;;;;;;17.00;6.18;;;;;;;23.46;50.42;100623.50;4947841;28;20039;-83
2022/05/25 05:33:27;;;;;;;12.30;5.90;;;;;;;22.55;50.87;100487.53;4947961;29;20051;-82
2022/05/25 05:35:59;;;;;;;14.18;6.78;;;;;;;23.10;50.30;100578.97;4950531;28;20054;-82
2022/05/25 05:38:28;;;;;;;11.63;6.45;;;;;;;22.67;50.58;100490.38;4947518;29;20050;-82
2022/05/25 05:40:56;;;;;;;9.90;5.88;;;;;;;23.58;50.26;100627.13;4952905;29;20163;-81
2022/05/25 05:43:23;;;;;;;11.55;6.00;;;;;;;23.63;50.90;100646.28;4968140;28;20051;-81
2022/05/25 05:45:53;;;;;;;9.88;6.18;;;;;;;23.28;50.97;100582.78;4951060;28;20057;-82
2022/05/25 05:48:23;;;;;;;14.48;6.07;;;;;;;22.47;50.90;100446.38;4949885;28;20112;-81
2022/05/25 05:50:54;;;;;;;11.05;7.05;;;;;;;23.55;50.85;100627.59;4946489;29;20431;-81
2022/05/25 05:53:26;;;;;;;16.60;6.82;;;;;;;23.52;50.48;100598.25;4962326;28;20050;-82
2022/05/25 05:55:53;;;;;;;12.60;6.63;;;;;;;22.73;50.54;100478.66;4946581;29;20485;-81
2022/05/25 05:58:20;;;;;;;23.55;7.43;;;;;;;23.72;50.50;100637.88;4947021;29;20191;-82
2022/05/25 06:00:47;;;;;;;11.15;6.25;;;;;;;23.85;50.57;100664.88;4947537;29;20054;-83
2022/05/25 06:03:17;;;;;;;14.32;7.22;;;;;;;22.16;50.17;100383.09;4949531;28;20409;-84
2022/05/25 06:05:47;;;;;;;14.40;6.87;;;;;;;23.77;50.18;100643.50;4947813;29;20062;-81
2022/05/25 06:08:21;;;;;;;14.68;7.25;;;;;;;23.43;50.10;100591.44;4963077;28;20811;-82
2022/05/25 06:10:48;;;;;;;14.43;7.40;;;;;;;23.68;49.97;100638.31;4947370;29;20058;-82
2022/05/25 06:13:15;;;;;;;15.23;6.28;;;;;;;22.73;50.12;100462.41;4950022;28;20058;-81
2022/05/25 06:21:23;;;;;;;18.73;7.40;;;;;;;23.89;49.97;100633.56;4948072;29;20051;-82
2022/05/25 06:23:51;;;;;;;12.85;6.05;;;;;;;24.10;49.98;100654.00;4946504;29;20066;-81
2022/05/25 06:26:18;;;;;;;12.02;6.38;;;;;;;24.11;49.76;100642.09;4947266;29;20613;-81
2022/05/25 06:28:45;;;;;;;9.75;6.97;;;;;;;23.52;49.81;100535.94;4946647;29;20437;-81
2022/05/25 06:31:13;;;;;;;10.43;6.32;;;;;;;24.02;49.94;100605.50;4946619;29;20131;-81
2022/05/25 06:33:41;;;;;;;12.70;6.28;;;;;;;24.35;49.73;100656.66;4930981;29;20048;-81
2022/05/25 06:36:16;;;;;;;13.95;6.18;;;;;;;24.36;49.57;100643.91;4961885;28;20052;-78
2022/05/25 06:38:44;;;;;;;17.73;6.80;;;;;;;24.67;49.25;100689.09;4946143;29;20055;-80
2022/05/25 06:41:12;;;;;;;13.10;5.68;;;;;;;24.56;49.41;100660.00;4946968;29;20151;-82
2022/05/25 06:43:39;;;;;;;12.85;6.50;;;;;;;23.81;49.35;100549.81;4945788;29;20494;-82
2022/05/25 06:46:08;;;;;;;14.82;7.20;;;;;;;24.52;49.45;100671.31;4945784;28;20086;-80
2022/05/25 06:48:51;;;;;;;11.60;6.43;;;;;;;24.73;49.48;100693.59;4946250;28;20079;-80
2022/05/25 06:51:23;;;;;;;15.93;6.38;;;;;;;24.01;48.92;100565.88;4945640;28;20050;-81
2022/05/25 06:53:50;;;;;;;17.00;6.97;;;;;;;24.44;49.08;100647.16;4947976;29;20063;-81
2022/05/25 06:56:18;;;;;;;15.85;6.45;;;;;;;24.45;49.11;100616.25;4948053;29;20047;-82
2022/05/25 06:58:47;;;;;;;12.43;5.70;;;;;;;24.43;48.91;100610.22;4964159;28;20055;-81
2022/05/25 07:01:15;;;;;;;9.40;5.75;;;;;;;24.88;48.83;100683.19;4950178;28;20055;-80
2022/05/25 07:03:42;;;;;;;12.98;5.57;;;;;;;25.20;48.55;100715.59;4948219;29;20461;-81
2022/05/25 07:06:10;;;;;;;12.57;5.95;;;;;;;24.69;48.80;100622.66;4950451;29;20537;-82
2022/05/25 07:08:38;;;;;;;13.98;5.97;;;;;;;24.82;48.57;100647.97;4950281;29;20059;-82
2022/05/25 07:11:09;;;;;;;11.98;6.20;;;;;;;24.03;48.74;100521.22;4951515;28;20055;-81
2022/05/25 07:13:37;;;;;;;13.00;6.85;;;;;;;24.50;49.10;100585.75;4949998;29;20051;-82
2022/05/25 07:16:09;;;;;;;11.07;5.78;;;;;;;24.84;49.06;100638.53;4949802;29;20051;-80
2022/05/25 07:18:37;;;;;;;12.70;6.05;;;;;;;24.10;48.33;100494.84;4950026;29;20409;-81
2022/05/25 07:21:11;;;;;;;12.10;6.43;;;;;;;24.55;48.41;100571.50;4952250;29;20307;-82
2022/05/25 07:23:40;;;;;;;12.00;5.75;;;;;;;24.03;48.42;100480.53;4952288;28;20383;-82
2022/05/25 07:26:09;;;;;;;10.52;5.80;;;;;;;24.49;48.13;100557.81;4949809;29;20381;-81
2022/05/25 07:28:37;;;;;;;16.23;6.28;;;;;;;24.46;48.52;100547.38;4949583;29;20166;-83
2022/05/25 07:31:26;;;;;;;15.02;6.00;;;;;;;25.33;48.20;100699.06;4949835;28;20074;-83
2022/05/25 07:34:24;;;;;;;10.05;5.97;;;;;;;25.66;48.37;100743.97;4947368;29;20051;-83
2022/05/25 07:36:59;;;;;;;10.02;5.03;;;;;;;25.45;47.79;100706.44;4943987;29;20066;-81
2022/05/25 07:39:39;;;;;;;15.48;5.78;;;;;;;24.66;47.93;100587.00;4949746;29;20651;-81
2022/05/25 07:42:08;;;;;;;9.10;5.17;;;;;;;25.39;47.60;100705.50;4950048;29;20055;-81
2022/05/25 07:44:48;;;;;;;10.38;6.03;;;;;;;25.64;47.91;100756.97;4950384;29;20055;-81
2022/05/25 07:47:18;;;;;;;7.25;5.28;;;;;;;25.12;47.70;100664.25;4950237;29;20063;-81
2022/05/25 07:49:48;;;;;;;7.57;5.18;;;;;;;25.74;47.30;100754.50;4950085;29;20098;-82
2022/05/25 07:52:20;;;;;;;11.48;4.82;;;;;;;26.03;46.46;100765.56;4967766;28;20070;-81
2022/05/25 07:54:48;;;;;;;8.82;4.75;;;;;;;25.07;46.73;100613.34;4961946;28;20320;-82
2022/05/25 07:57:15;;;;;;;10.35;5.40;;;;;;;25.77;46.82;100732.25;4967672;29;20078;-83
2022/05/25 07:59:42;;;;;;;11.07;5.20;;;;;;;25.63;46.78;100695.47;4970227;29;20069;-83
2022/05/25 08:08:02;;;;;;;14.05;6.18;;;;;;;26.00;46.32;100749.72;4953222;29;20111;-81
2022/05/25 08:10:30;;;;;;;19.35;5.82;;;;;;;26.26;46.21;100764.75;4949835;29;20476;-83
2022/05/25 08:12:59;;;;;;;11.50;6.43;;;;;;;26.25;46.76;100765.00;4949301;29;20051;-82
2022/05/25 08:15:27;;;;;;;11.52;6.55;;;;;;;26.38;47.09;100770.19;4951807;28;20059;-82
2022/05/25 08:17:55;;;;;;;15.18;7.05;;;;;;;25.75;46.76;100674.59;4953967;29;20516;-81
2022/05/25 08:20:22;;;;;;;10.50;6.55;;;;;;;26.33;46.82;100765.47;4953850;29;20311;-82
2022/05/25 08:22:49;;;;;;;12.23;6.80;;;;;;;25.85;46.91;100674.00;4954121;28;20573;-81
2022/05/25 08:25:19;;;;;;;18.63;7.70;;;;;;;25.95;46.95;100687.06;4949610;29;20063;-82
2022/05/25 08:27:46;;;;;;;12.90;7.32;;;;;;;25.25;47.17;100560.88;4949190;29;20357;-81
2022/05/25 08:30:17;;;;;;;10.95;6.65;;;;;;;25.88;47.26;100659.16;4951182;28;20519;-82
2022/05/25 08:32:44;;;;;;;14.30;6.80;;;;;;;25.74;46.94;100634.88;4955971;28;20114;-81
2022/05/25 08:35:11;;;;;;;12.07;6.60;;;;;;;26.64;46.59;100769.72;4956785;29;20066;-81
2022/05/25 08:37:38;;;;;;;11.77;6.85;;;;;;;26.84;46.87;100776.69;4951291;29;20057;-82
2022/05/25 08:40:06;;;;;;;12.90;7.28;;;;;;;25.99;47.92;100629.19;4950138;28;20047;-81
2022/05/25 08:42:41;;;;;;;15.43;6.55;;;;;;;26.88;46.18;100749.81;4949634;28;20047;-82
2022/05/25 08:45:09;;;;;;;12.50;6.85;;;;;;;26.97;46.45;100783.78;4944500;29;20395;-81
2022/05/25 08:47:41;;;;;;;11.15;7.68;;;;;;;26.71;46.33;100714.31;4949817;28;20055;-83
2022/05/25 08:50:08;;;;;;;12.98;6.97;;;;;;;26.97;46.63;100746.47;4949039;29;20055;-81
2022/05/25 08:52:36;;;;;;;10.18;6.05;;;;;;;26.72;46.29;100702.34;4947510;29;20481;-82
2022/05/25 08:55:09;;;;;;;17.27;6.97;;;;;;;27.30;45.65;100788.53;4948669;29;20488;-83
2022/05/25 08:57:42;;;;;;;10.15;6.32;;;;;;;27.31;45.51;100797.53;4948582;28;20058;-81
2022/05/25 09:00:17;;;;;;;11.85;5.85;;;;;;;26.99;44.95;100744.34;4964254;28;20066;-81
2022/05/25 09:03:22;;;;;;;16.40;6.95;;;;;;;27.44;45.94;100795.34;4947520;29;20502;-83
2022/05/25 09:05:59;;;;;;;10.90;6.70;;;;;;;27.27;44.84;100759.06;4941053;29;20055;-82
2022/05/25 09:08:45;;;;;;;16.08;6.32;;;;;;;26.06;45.36;100571.97;4946946;29;20147;-82
2022/05/25 09:11:25;;;;;;;10.13;6.20;;;;;;;27.56;44.73;100813.56;4947400;29;20051;-82
2022/05/25 09:14:13;;;;;;;11.65;5.90;;;;;;;27.15;44.86;100744.63;4947533;28;20125;-82
2022/05/25 09:16:40;;;;;;;11.75;5.57;;;;;;;27.48;44.57;100793.81;4948029;29;20055;-81
2022/05/25 09:19:17;;;;;;;7.80;5.78;;;;;;;27.58;45.23;100792.34;4948665;29;20111;-83
2022/05/25 09:21:58;;;;;;;10.32;6.82;;;;;;;27.65;45.51;100823.03;4947041;29;20047;-81
2022/05/25 09:24:27;;;;;;;12.05;6.30;;;;;;;27.51;45.20;100794.41;4947669;29;20054;-83
2022/05/25 09:26:59;;;;;;;9.27;5.75;;;;;;;27.48;45.77;100812.91;4947364;29;20061;-83
2022/05/25 09:29:26;;;;;;;9.20;6.25;;;;;;;27.00;45.74;100729.63;4947427;29;20055;-82
2022/05/25 09:32:06;;;;;;;10.00;6.72;;;;;;;27.15;46.28;100747.34;4962459;28;20062;-83
2022/05/25 09:35:00;;;;;;;10.38;6.30;;;;;;;27.82;45.20;100828.50;4946866;29;20545;-83
2022/05/25 09:37:40;;;;;;;12.30;6.65;;;;;;;27.84;44.85;100829.94;4948484;28;20051;-82
2022/05/25 09:40:22;;;;;;;11.63;5.53;;;;;;;26.93;44.95;100663.56;4962691;28;20531;-82
2022/05/25 09:42:52;;;;;;;14.45;5.45;;;;;;;27.89;44.30;100824.59;4946502;29;20548;-83
2022/05/25 09:45:20;;;;;;;12.95;6.60;;;;;;;28.03;45.26;100830.53;4962707;28;20059;-83
2022/05/25 09:47:49;;;;;;;11.30;5.68;;;;;;;27.15;45.80;100682.78;4946625;29;20576;-83
2022/05/25 09:50:24;;;;;;;7.95;5.90;;;;;;;27.86;45.42;100775.94;4948612;29;20527;-82
2022/05/25 09:52:53;;;;;;;14.05;6.55;;;;;;;27.45;45.92;100708.94;4946519;29;20059;-82
2022/05/25 09:55:37;;;;;;;7.78;5.55;;;;;;;28.39;45.89;100836.56;4947681;29;20067;-81
2022/05/25 09:58:21;;;;;;;9.85;6.43;;;;;;;28.39;45.65;100805.72;4945962;29;20048;-82
2022/05/25 10:00:58;;;;;;;9.48;6.13;;;;;;;27.76;45.29;100704.84;4947977;28;20066;-82
2022/05/25 10:03:41;;;;;;;9.77;6.50;;;;;;;27.71;45.26;100710.22;4944340;29;20059;-81
2022/05/25 10:06:52;;;;;;;14.57;6.45;;;;;;;28.25;44.63;100797.03;4946945;29;20055;-82
2022/05/25 10:09:23;;;;;;;;;;;;;;;28.51;44.08;100847.44;4948099;29;20055;-82
2022/05/25 10:11:53;;;;;;;14.32;5.65;;;;;;;27.43;44.11;100668.31;4950889;28;20320;-82
2022/05/25 10:14:33;;;;;;;12.35;5.10;;;;;;;28.79;44.34;100853.84;4948417;29;20062;-81
2022/05/25 10:17:35;;;;;;;12.25;4.95;;;;;;;28.56;43.33;100771.03;4948855;29;20055;-82
2022/05/25 10:20:04;;;;;;;;;;;;;;;28.97;43.19;100848.09;4949312;29;20094;-82
2022/05/25 10:22:33;;;;;;;13.68;6.07;;;;;;;29.05;43.51;100825.78;4949008;29;20428;-82
2022/05/25 10:25:06;;;;;;;12.93;5.13;;;;;;;28.86;42.95;100767.06;4949907;28;20098;-82
2022/05/25 10:27:41;;;;;;;10.95;4.80;;;;;;;28.94;43.12;100802.97;4952665;29;20059;-80
2022/05/25 10:36:47;;;;;;;8.27;5.72;;;;;;;29.38;42.77;100848.63;4951178;29;20055;-83
2022/05/25 10:39:33;;;;;;;10.18;5.75;;;;;;;28.80;42.47;100751.69;4950067;29;20065;-81
2022/05/25 10:42:19;;;;;;;15.38;6.20;;;;;;;29.15;42.62;100809.56;4949805;29;20062;-82
2022/05/25 10:45:12;;;;;;;10.68;6.55;;;;;;;29.41;43.79;100837.19;4949408;28;20719;-82
2022/05/25 10:47:59;;;;;;;11.02;5.78;;;;;;;29.18;43.92;100787.19;4949913;29;20047;-83
2022/05/25 10:50:34;;;;;;;12.43;6.35;;;;;;;29.48;43.28;100812.38;4950848;29;20055;-83
2022/05/25 10:53:26;;;;;;;10.93;6.70;;;;;;;29.94;43.39;100838.31;4950455;29;20120;-82
2022/05/25 10:56:02;;;;;;;11.75;6.88;;;;;;;30.03;43.29;100841.41;4952037;28;20496;-81
2022/05/25 10:58:29;;;;;;;10.60;7.05;;;;;;;29.93;43.48;100833.94;4948767;29;20517;-82
2022/05/25 11:01:16;;;;;;;12.25;7.18;;;;;;;30.06;43.73;100846.34;4950826;28;20150;-81
2022/05/25 11:03:59;;;;;;;20.55;7.32;;;;;;;29.44;43.64;100779.22;4930653;29;20055;-83
2022/05/25 11:06:35;;;;;;;13.65;6.20;;;;;;;29.67;43.54;100835.59;4930217;29;20474;-83
2022/05/25 11:09:16;;;;;;;14.73;7.43;;;;;;;29.76;44.59;100866.88;4930617;29;20434;-82
2022/05/25 11:12:09;;;;;;;10.07;5.72;;;;;;;29.71;43.63;100844.09;4930367;29;20056;-82
2022/05/25 11:14:55;;;;;;;12.55;6.43;;;;;;;29.76;43.45;100811.31;4930955;29;20063;-82
2022/05/25 11:17:37;;;;;;;13.90;6.47;;;;;;;29.11;43.12;100717.41;4932123;29;20055;-80
2022/05/25 11:20:18;;;;;;;12.40;6.60;;;;;;;30.19;43.05;100856.03;4933794;29;20080;-80
2022/05/25 11:22:57;;;;;;;9.00;6.03;;;;;;;30.66;41.77;100855.34;4933813;29;20052;-82
2022/05/25 11:25:42;;;;;;;10.63;5.55;;;;;;;30.39;41.60;100749.44;4945587;29;20047;-81
2022/05/25 11:28:38;;;;;;;16.40;6.07;;;;;;;31.20;41.25;100855.09;4950159;28;20047;-82
2022/05/25 11:31:13;;;;;;;13.63;6.00;;;;;;;31.24;40.71;100847.97;4952381;28;20497;-80
2022/05/25 11:34:19;;;;;;;12.70;6.28;;;;;;;31.12;40.23;100819.97;4950734;29;20070;-81
2022/05/25 11:37:32;;;;;;;10.80;5.75;;;;;;;31.52;40.09;100824.75;4952045;28;20213;-82
2022/05/25 11:40:38;;;;;;;13.25;6.20;;;;;;;30.88;39.42;100691.59;4949148;29;20059;-81
2022/05/25 11:43:29;;;;;;;9.85;5.97;;;;;;;31.97;39.32;100841.63;4946816;29;20481;-82
2022/05/25 11:46:30;;;;;;;14.40;6.60;;;;;;;32.25;38.18;100844.91;4950542;28;20058;-82
2022/05/25 11:49:42;;;;;;;12.63;6.07;;;;;;;32.17;38.34;100815.25;4951426;29;20054;-80
2022/05/25 11:52:36;;;;;;;11.43;6.25;;;;;;;31.95;37.23;100761.44;4951110;28;20043;-82
2022/05/25 11:55:25;;;;;;;12.25;6.20;;;;;;;32.80;36.69;100854.19;4949315;29;20047;-80
2022/05/25 11:57:55;;;;;;;16.98;6.28;;;;;;;32.77;36.10;100784.09;4951098;28;20539;-81
2022/05/25 12:00:50;;;;;;;9.45;5.50;;;;;;;33.28;36.14;100846.34;4950410;29;20224;-82
2022/05/25 12:03:39;;;;;;;10.52;5.35;;;;;;;33.40;36.20;100851.47;4953598;29;20126;-83
2022/05/25 12:06:27;;;;;;;;;;;;;;;33.60;35.55;100848.66;4959657;29;20051;-83
2022/05/25 12:09:09;;;;;;;6.88;5.05;;;;;;;33.87;35.70;100843.81;4963360;29;19965;-83
2022/05/25 12:11:48;;;;;;;11.98;5.97;;;;;;;33.97;35.42;100846.47;4972318;28;20051;-82
2022/05/25 12:14:21;;;;;;;13.80;5.75;;;;;;;34.01;35.59;100831.03;4962996;28;20047;-82
2022/05/25 12:16:51;;;;;;;11.82;6.25;;;;;;;33.05;34.88;100679.25;4954312;29;20119;-82